createdAt,value
2018-04-06T00:01:52.023Z,7.10
2018-04-06T00:04:19.575Z,7.10
2018-04-06T00:06:47.092Z,7.03
2018-04-06T00:09:14.605Z,6.89
2018-04-06T00:11:42.135Z,6.84
2018-04-06T00:14:09.642Z,6.74
2018-04-06T00:16:37.194Z,6.74
2018-04-06T00:19:04.699Z,6.69
2018-04-06T00:21:32.222Z,6.67
2018-04-06T00:23:59.752Z,6.61
2018-04-06T00:26:27.261Z,6.54
2018-04-06T00:28:54.808Z,6.51
2018-04-06T00:31:22.333Z,6.45
2018-04-06T00:33:49.841Z,6.44
2018-04-06T00:36:17.373Z,6.34
2018-04-06T00:38:44.882Z,6.32
2018-04-06T00:41:12.745Z,6.27
2018-04-06T00:43:40.250Z,6.23
2018-04-06T00:46:07.768Z,6.21
2018-04-06T00:48:35.447Z,6.20
2018-04-06T00:51:02.964Z,6.13
2018-04-06T00:53:42.285Z,6.06
2018-04-06T00:56:09.789Z,6.05
2018-04-06T00:58:37.293Z,6.02
2018-04-06T01:01:05.123Z,6.05
2018-04-06T01:03:33.307Z,6.05
2018-04-06T01:06:01.392Z,6.02
2018-04-06T01:08:28.902Z,6.04
2018-04-06T01:10:56.410Z,6.02
2018-04-06T01:13:24.776Z,5.93
2018-04-06T01:15:52.278Z,5.86
2018-04-06T01:18:20.061Z,5.81
2018-04-06T01:20:47.573Z,5.85
2018-04-06T01:23:15.086Z,5.76
2018-04-06T01:25:42.613Z,5.71
2018-04-06T01:28:10.128Z,5.62
2018-04-06T01:30:37.984Z,5.64
2018-04-06T01:33:06.206Z,5.66
2018-04-06T01:35:33.715Z,5.64
2018-04-06T01:38:02.233Z,5.57
2018-04-06T01:40:29.742Z,5.45
2018-04-06T01:42:57.298Z,5.45
2018-04-06T01:45:24.825Z,5.54
2018-04-06T01:47:52.329Z,5.46
2018-04-06T01:50:19.853Z,5.34
2018-04-06T01:52:47.358Z,5.46
2018-04-06T01:55:15.298Z,5.45
2018-04-06T01:57:42.801Z,5.39
2018-04-06T02:00:10.323Z,5.44
2018-04-06T02:02:37.854Z,5.30
2018-04-06T02:05:05.365Z,5.38
2018-04-06T02:07:32.985Z,5.38
2018-04-06T02:10:00.490Z,5.32
2018-04-06T02:12:28.006Z,5.26
2018-04-06T02:14:55.542Z,5.32
2018-04-06T02:17:23.053Z,5.28
2018-04-06T02:19:50.990Z,5.17
2018-04-06T02:22:18.502Z,5.05
2018-04-06T02:24:46.090Z,5.03
2018-04-06T02:27:13.578Z,5.07
2018-04-06T02:29:41.078Z,4.97
2018-04-06T02:32:08.642Z,5.00
2018-04-06T02:34:36.163Z,4.95
2018-04-06T02:37:03.662Z,4.98
2018-04-06T02:39:31.199Z,4.94
2018-04-06T02:41:59.030Z,4.88
2018-04-06T02:44:26.897Z,4.87
2018-04-06T02:46:54.414Z,4.85
2018-04-06T02:49:22.342Z,4.85
2018-04-06T02:51:49.873Z,4.90
2018-04-06T02:54:17.379Z,4.85
2018-04-06T02:56:45.161Z,4.90
2018-04-06T02:59:12.672Z,4.81
2018-04-06T03:01:40.194Z,4.79
2018-04-06T03:04:07.724Z,4.75
2018-04-06T03:06:35.235Z,4.75
2018-04-06T03:09:02.889Z,4.67
2018-04-06T03:11:30.397Z,4.65
2018-04-06T03:13:57.901Z,4.73
2018-04-06T03:16:25.806Z,4.75
2018-04-06T03:18:53.314Z,4.66
2018-04-06T03:21:21.433Z,4.57
2018-04-06T03:23:48.937Z,4.58
2018-04-06T03:26:16.437Z,4.48
2018-04-06T03:28:43.961Z,4.40
2018-04-06T03:31:11.466Z,4.56
2018-04-06T03:33:39.202Z,4.59
2018-04-06T03:36:07.849Z,4.55
2018-04-06T03:38:35.363Z,4.68
2018-04-06T03:41:02.889Z,4.62
2018-04-06T03:43:30.401Z,4.57
2018-04-06T03:45:57.969Z,4.57
2018-04-06T03:48:25.479Z,4.64
2018-04-06T03:50:53.043Z,4.54
2018-04-06T03:53:20.577Z,4.54
2018-04-06T03:55:48.082Z,4.66
2018-04-06T03:58:15.634Z,4.75
2018-04-06T04:00:43.149Z,4.64
2018-04-06T04:03:10.669Z,4.67
2018-04-06T04:05:38.201Z,4.75
2018-04-06T04:08:05.697Z,4.85
2018-04-06T04:10:33.242Z,4.87
2018-04-06T04:13:00.753Z,4.92
2018-04-06T04:15:28.263Z,4.89
2018-04-06T04:17:55.794Z,4.93
2018-04-06T04:20:23.639Z,4.82
2018-04-06T04:22:51.181Z,4.75
2018-04-06T04:25:18.682Z,4.74
2018-04-06T04:27:46.189Z,4.72
2018-04-06T04:30:13.718Z,4.67
2018-04-06T04:32:41.234Z,4.44
2018-04-06T04:35:08.903Z,4.49
2018-04-06T04:37:36.401Z,4.48
2018-04-06T04:40:03.910Z,4.48
2018-04-06T04:42:31.455Z,4.52
2018-04-06T04:44:59.393Z,4.44
2018-04-06T04:47:27.208Z,4.43
2018-04-06T04:49:55.100Z,4.39
2018-04-06T04:52:22.720Z,4.42
2018-04-06T04:54:50.254Z,4.40
2018-04-06T04:57:17.765Z,4.35
2018-04-06T04:59:45.620Z,4.36
2018-04-06T05:02:13.129Z,4.34
2018-04-06T05:04:40.639Z,4.34
2018-04-06T05:07:08.173Z,4.37
2018-04-06T05:09:35.685Z,4.38
2018-04-06T05:12:03.602Z,4.41
2018-04-06T05:14:31.106Z,4.44
2018-04-06T05:16:59.827Z,4.53
2018-04-06T05:19:27.365Z,4.60
2018-04-06T05:21:54.873Z,4.61
2018-04-06T05:24:23.031Z,4.66
2018-04-06T05:26:50.510Z,4.69
2018-04-06T05:29:18.014Z,4.75
2018-04-06T05:31:45.542Z,4.82
2018-04-06T05:34:13.096Z,4.81
2018-04-06T05:36:40.853Z,4.86
2018-04-06T05:39:08.357Z,5.01
2018-04-06T05:41:35.870Z,5.13
2018-04-06T05:44:03.412Z,5.17
2018-04-06T05:46:30.934Z,5.21
2018-04-06T05:48:58.498Z,5.31
2018-04-06T05:51:26.558Z,5.43
2018-04-06T05:53:54.066Z,5.61
2018-04-06T05:56:21.602Z,5.78
2018-04-06T05:58:49.106Z,5.92
2018-04-06T06:01:16.962Z,6.23
2018-04-06T06:03:44.466Z,6.56
2018-04-06T06:06:11.982Z,7.14
2018-04-06T06:08:39.537Z,7.35
2018-04-06T06:11:07.050Z,7.71
2018-04-06T06:13:34.854Z,7.87
2018-04-06T06:16:02.440Z,8.21
2018-04-06T06:18:29.958Z,8.50
2018-04-06T06:20:57.525Z,8.86
2018-04-06T06:23:25.043Z,8.88
2018-04-06T06:25:52.768Z,8.90
2018-04-06T06:28:20.286Z,9.08
2018-04-06T06:30:47.800Z,9.24
2018-04-06T06:33:15.338Z,9.43
2018-04-06T06:35:42.857Z,9.78
2018-04-06T06:38:11.867Z,9.88
2018-04-06T06:40:39.409Z,10.14
2018-04-06T06:43:06.943Z,10.28
2018-04-06T06:45:34.491Z,10.35
2018-04-06T06:48:02.003Z,10.48
2018-04-06T06:50:29.793Z,10.65
2018-04-06T06:52:57.313Z,11.05
2018-04-06T06:55:24.835Z,11.09
2018-04-06T06:57:52.382Z,11.33
2018-04-06T07:00:20.379Z,11.55
2018-04-06T07:02:48.190Z,11.39
2018-04-06T07:05:15.714Z,11.86
2018-04-06T07:07:43.233Z,11.86
2018-04-06T07:10:10.794Z,11.72
2018-04-06T07:12:38.310Z,11.69
2018-04-06T07:15:06.003Z,11.90
2018-04-06T07:17:33.541Z,11.87
2018-04-06T07:20:01.127Z,12.08
2018-04-06T07:22:29.034Z,11.41
2018-04-06T07:24:56.550Z,10.59
2018-04-06T07:27:24.512Z,10.77
2018-04-06T07:29:52.030Z,11.27
2018-04-06T07:32:19.563Z,11.68
2018-04-06T07:34:47.107Z,12.06
2018-04-06T07:37:14.622Z,12.70
2018-04-06T07:39:42.505Z,12.96
2018-04-06T07:42:10.017Z,12.27
2018-04-06T07:44:37.538Z,12.88
2018-04-06T07:47:05.481Z,13.63
2018-04-06T07:49:33.006Z,13.26
2018-04-06T07:52:00.534Z,12.65
2018-04-06T07:54:28.478Z,13.09
2018-04-06T07:56:56.010Z,12.79
2018-04-06T07:59:23.553Z,12.95
2018-04-06T08:01:51.278Z,13.47
2018-04-06T08:04:18.805Z,14.25
2018-04-06T08:06:46.352Z,13.61
2018-04-06T08:09:14.041Z,13.91
2018-04-06T08:11:41.553Z,14.11
2018-04-06T08:14:09.078Z,14.34
2018-04-06T08:16:36.742Z,14.45
2018-04-06T08:19:04.266Z,15.25
2018-04-06T08:21:31.804Z,15.34
2018-04-06T08:23:59.826Z,16.43
2018-04-06T08:26:27.357Z,16.27
2018-04-06T08:28:54.877Z,16.39
2018-04-06T08:31:23.221Z,17.09
2018-04-06T08:33:50.741Z,16.38
2018-04-06T08:36:18.289Z,16.42
2018-04-06T08:38:46.077Z,16.12
2018-04-06T08:41:13.596Z,16.26
2018-04-06T08:43:41.636Z,16.90
2018-04-06T08:46:09.357Z,17.38
2018-04-06T08:48:36.874Z,18.04
2018-04-06T08:51:04.388Z,18.19
2018-04-06T08:53:32.985Z,17.54
2018-04-06T08:56:00.546Z,18.48
2018-04-06T08:58:28.070Z,18.63
2018-04-06T09:00:55.609Z,18.03
2018-04-06T09:03:23.119Z,17.98
2018-04-06T09:05:50.649Z,18.27
2018-04-06T09:08:18.193Z,19.07
2018-04-06T09:10:45.704Z,19.59
2018-04-06T09:13:13.251Z,19.27
2018-04-06T09:15:40.808Z,20.64
2018-04-06T09:18:08.326Z,20.92
2018-04-06T09:20:35.845Z,22.01
2018-04-06T09:23:03.384Z,21.88
2018-04-06T09:25:30.898Z,22.22
2018-04-06T09:27:58.415Z,21.84
2018-04-06T09:30:25.962Z,21.73
2018-04-06T09:32:53.494Z,20.46
2018-04-06T09:35:21.009Z,21.58
2018-04-06T09:37:48.542Z,22.07
2018-04-06T09:40:17.030Z,22.10
2018-04-06T09:42:44.546Z,23.71
2018-04-06T09:45:12.126Z,24.26
2018-04-06T09:47:39.661Z,24.47
2018-04-06T09:50:08.194Z,24.10
2018-04-06T09:52:35.730Z,25.88
2018-04-06T09:55:03.251Z,23.94
2018-04-06T09:57:30.810Z,25.15
2018-04-06T09:59:58.348Z,25.57
2018-04-06T10:02:25.860Z,25.29
2018-04-06T10:04:53.411Z,24.62
2018-04-06T10:07:21.401Z,24.80
2018-04-06T10:09:48.970Z,24.39
2018-04-06T10:12:16.882Z,25.78
2018-04-06T10:14:44.503Z,24.78
2018-04-06T10:17:12.057Z,25.35
2018-04-06T10:19:39.599Z,26.75
2018-04-06T10:22:07.621Z,27.23
2018-04-06T10:24:35.140Z,26.45
2018-04-06T10:27:02.911Z,27.47
2018-04-06T10:29:31.187Z,28.01
2018-04-06T10:31:59.156Z,27.79
2018-04-06T10:34:26.728Z,27.58
2018-04-06T10:36:54.239Z,26.87
2018-04-06T10:39:21.800Z,26.58
2018-04-06T10:41:49.395Z,26.29
2018-04-06T10:44:18.046Z,26.11
2018-04-06T10:46:46.235Z,26.20
2018-04-06T10:49:13.802Z,27.40
2018-04-06T10:51:41.390Z,27.53
2018-04-06T10:54:08.899Z,26.62
2018-04-06T10:56:36.448Z,25.00
2018-04-06T10:59:04.004Z,25.33
2018-04-06T11:01:31.533Z,25.95
2018-04-06T11:03:59.112Z,26.11
2018-04-06T11:06:26.801Z,26.66
2018-04-06T11:08:54.341Z,28.24
2018-04-06T11:11:23.010Z,27.91
2018-04-06T11:13:50.577Z,27.40
2018-04-06T11:16:18.984Z,26.87
2018-04-06T11:18:46.862Z,27.68
2018-04-06T11:21:16.827Z,26.87
2018-04-06T11:23:45.254Z,27.33
2018-04-06T11:26:13.063Z,26.93
2018-04-06T11:28:40.702Z,27.72
2018-04-06T11:31:08.253Z,28.21
2018-04-06T11:33:35.860Z,27.04
2018-04-06T11:36:03.401Z,27.65
2018-04-06T11:38:31.868Z,25.91
2018-04-06T11:40:59.443Z,27.90
2018-04-06T11:43:27.067Z,28.04
2018-04-06T11:45:55.236Z,27.66
2018-04-06T11:48:22.774Z,29.16
2018-04-06T11:50:51.219Z,28.06
2018-04-06T11:53:18.767Z,28.15
2018-04-06T11:55:46.414Z,29.94
2018-04-06T11:58:14.039Z,30.38
2018-04-06T12:00:42.698Z,28.91
2018-04-06T12:03:10.301Z,28.00
2018-04-06T12:05:38.188Z,27.25
2018-04-06T12:08:05.719Z,27.97
2018-04-06T12:10:33.373Z,27.30
2018-04-06T12:13:01.158Z,26.38
2018-04-06T12:15:28.736Z,26.38
2018-04-06T12:17:56.779Z,26.99
2018-04-06T12:20:24.438Z,26.76
2018-04-06T12:22:52.462Z,27.27
2018-04-06T12:25:20.314Z,28.71
2018-04-06T12:27:48.065Z,27.88
2018-04-06T12:30:15.618Z,27.81
2018-04-06T12:32:43.194Z,28.92
2018-04-06T12:35:11.027Z,28.20
2018-04-06T12:37:38.691Z,29.31
2018-04-06T12:40:06.347Z,29.63
2018-04-06T12:42:34.451Z,27.63
2018-04-06T12:45:02.103Z,26.69
2018-04-06T12:47:29.770Z,27.35
2018-04-06T12:49:57.301Z,27.14
2018-04-06T12:52:25.386Z,26.45
2018-04-06T12:54:53.162Z,26.94
2018-04-06T12:57:20.860Z,27.75
2018-04-06T12:59:48.592Z,27.16
2018-04-06T13:02:16.419Z,27.98
2018-04-06T13:04:44.333Z,28.61
2018-04-06T13:07:11.942Z,26.60
2018-04-06T13:09:39.809Z,26.31
2018-04-06T13:12:08.462Z,26.85
2018-04-06T13:14:36.662Z,27.99
2018-04-06T13:17:05.516Z,28.33
2018-04-06T13:19:33.134Z,26.70
2018-04-06T13:22:03.872Z,26.59
2018-04-06T13:24:31.481Z,27.53
2018-04-06T13:26:59.084Z,25.45
2018-04-06T13:29:26.687Z,25.99
2018-04-06T13:31:54.301Z,26.77
2018-04-06T13:34:22.105Z,27.78
2018-04-06T13:36:49.864Z,27.75
2018-04-06T13:39:17.526Z,28.68
2018-04-06T13:41:45.083Z,26.79
2018-04-06T13:44:12.656Z,27.02
2018-04-06T13:46:40.461Z,27.59
2018-04-06T13:49:08.001Z,28.15
2018-04-06T13:51:35.586Z,27.40
2018-04-06T13:54:04.213Z,26.93
2018-04-06T13:56:32.901Z,27.21
2018-04-06T13:59:01.996Z,28.19
2018-04-06T14:01:30.127Z,27.04
2018-04-06T14:03:57.751Z,27.43
2018-04-06T14:06:25.304Z,27.88
2018-04-06T14:08:53.065Z,27.12
2018-04-06T14:11:20.629Z,26.39
2018-04-06T14:13:49.100Z,25.95
2018-04-06T14:16:16.623Z,26.56
2018-04-06T14:18:44.157Z,27.14
2018-04-06T14:21:11.671Z,26.72
2018-04-06T14:23:39.943Z,26.69
2018-04-06T14:26:07.456Z,26.67
2018-04-06T14:28:34.983Z,26.61
2018-04-06T14:31:02.518Z,26.25
2018-04-06T14:33:30.488Z,26.55
2018-04-06T14:35:58.225Z,27.61
2018-04-06T14:38:25.752Z,27.92
2018-04-06T14:40:53.276Z,28.06
2018-04-06T14:43:20.922Z,27.15
2018-04-06T14:45:48.447Z,25.80
2018-04-06T14:48:16.049Z,24.84
2018-04-06T14:50:43.557Z,25.48
2018-04-06T14:53:11.102Z,26.21
2018-04-06T14:55:38.672Z,27.15
2018-04-06T14:58:06.209Z,26.71
2018-04-06T15:00:33.922Z,25.89
2018-04-06T15:03:01.443Z,25.70
2018-04-06T15:05:28.960Z,24.28
2018-04-06T15:07:56.625Z,24.88
2018-04-06T15:10:25.215Z,25.55
2018-04-06T15:12:52.977Z,25.11
2018-04-06T15:15:20.541Z,25.39
2018-04-06T15:17:48.046Z,25.86
2018-04-06T15:20:15.601Z,25.66
2018-04-06T15:22:44.191Z,24.22
2018-04-06T15:25:12.010Z,24.80
2018-04-06T15:27:39.706Z,24.71
2018-04-06T15:30:07.234Z,24.20
2018-04-06T15:32:34.818Z,24.69
2018-04-06T15:35:02.337Z,24.50
2018-04-06T15:37:30.074Z,24.59
2018-04-06T15:39:57.614Z,24.45
2018-04-06T15:42:25.302Z,24.18
2018-04-06T15:44:52.861Z,22.61
2018-04-06T15:47:20.404Z,21.34
2018-04-06T15:49:48.290Z,21.21
2018-04-06T15:52:15.814Z,21.00
2018-04-06T15:54:43.345Z,21.24
2018-04-06T15:57:10.887Z,20.66
2018-04-06T15:59:38.474Z,20.21
2018-04-06T16:02:06.321Z,19.29
2018-04-06T16:04:33.842Z,18.95
2018-04-06T16:07:01.377Z,19.11
2018-04-06T16:09:28.929Z,18.85
2018-04-06T16:11:56.489Z,18.58
2018-04-06T16:14:25.413Z,18.55
2018-04-06T16:16:52.931Z,18.74
2018-04-06T16:19:20.561Z,18.51
2018-04-06T16:21:48.161Z,18.34
2018-04-06T16:24:15.982Z,18.41
2018-04-06T16:26:46.750Z,18.13
2018-04-06T16:29:15.504Z,18.21
2018-04-06T16:31:43.057Z,18.06
2018-04-06T16:34:10.726Z,17.85
2018-04-06T16:36:38.246Z,17.86
2018-04-06T16:39:06.666Z,17.73
2018-04-06T16:41:34.328Z,17.71
2018-04-06T16:44:01.946Z,17.72
2018-04-06T16:46:29.652Z,17.63
2018-04-06T16:48:58.908Z,17.62
2018-04-06T16:51:27.422Z,17.79
2018-04-06T16:53:55.273Z,17.71
2018-04-06T16:56:23.166Z,17.36
2018-04-06T16:58:50.911Z,17.53
2018-04-06T17:01:18.478Z,17.49
2018-04-06T17:03:47.684Z,17.41
2018-04-06T17:06:15.654Z,17.18
2018-04-06T17:08:43.417Z,17.21
2018-04-06T17:11:12.710Z,17.18
2018-04-06T17:13:40.584Z,17.19
2018-04-06T17:16:08.453Z,17.15
2018-04-06T17:18:37.005Z,17.13
2018-04-06T17:21:04.900Z,16.89
2018-04-06T17:23:32.873Z,17.05
2018-04-06T17:26:00.735Z,16.91
2018-04-06T17:28:30.240Z,16.72
2018-04-06T17:30:58.311Z,16.66
2018-04-06T17:33:29.868Z,16.65
2018-04-06T17:35:57.730Z,16.43
2018-04-06T17:38:25.384Z,16.53
2018-04-06T17:40:53.263Z,16.53
2018-04-06T17:43:21.742Z,16.32
2018-04-06T17:45:50.103Z,16.32
2018-04-06T17:48:18.399Z,16.37
2018-04-06T17:50:46.167Z,16.39
2018-04-06T17:53:14.641Z,16.23
2018-04-06T17:55:42.722Z,15.90
2018-04-06T17:58:10.763Z,16.01
2018-04-06T18:00:38.953Z,15.68
2018-04-06T18:03:07.133Z,15.72
2018-04-06T18:05:35.001Z,15.75
2018-04-06T18:08:03.008Z,15.62
2018-04-06T18:10:31.124Z,15.66
2018-04-06T18:12:59.006Z,15.83
2018-04-06T18:15:26.793Z,15.72
2018-04-06T18:17:54.743Z,15.62
2018-04-06T18:20:22.606Z,15.34
2018-04-06T18:22:50.476Z,15.36
2018-04-06T18:25:18.945Z,15.28
2018-04-06T18:27:46.946Z,15.28
2018-04-06T18:30:15.177Z,15.14
2018-04-06T18:32:43.072Z,15.12
2018-04-06T18:35:11.036Z,15.13
2018-04-06T18:37:39.825Z,15.06
2018-04-06T18:40:08.816Z,14.90
2018-04-06T18:42:36.514Z,14.90
2018-04-06T18:45:04.444Z,14.89
2018-04-06T18:47:33.648Z,14.86
2018-04-06T18:50:01.510Z,14.74
2018-04-06T18:52:29.389Z,14.83
2018-04-06T18:54:57.346Z,14.68
2018-04-06T18:57:25.270Z,14.66
2018-04-06T18:59:53.395Z,14.48
2018-04-06T19:02:21.149Z,14.50
2018-04-06T19:04:48.918Z,14.25
2018-04-06T19:07:17.095Z,14.21
2018-04-06T19:09:45.329Z,14.39
2018-04-06T19:12:13.503Z,14.26
2018-04-06T19:14:42.122Z,14.08
2018-04-06T19:17:09.959Z,14.06
2018-04-06T19:19:38.879Z,14.06
2018-04-06T19:22:06.901Z,13.88
2018-04-06T19:24:35.534Z,13.98
2018-04-06T19:27:03.771Z,13.82
2018-04-06T19:29:32.161Z,13.82
2018-04-06T19:32:00.132Z,13.91
2018-04-06T19:34:27.995Z,13.71
2018-04-06T19:36:56.097Z,13.70
2018-04-06T19:39:24.887Z,13.62
2018-04-06T19:41:52.851Z,13.46
2018-04-06T19:44:20.790Z,13.60
2018-04-06T19:46:48.657Z,13.49
2018-04-06T19:49:16.864Z,13.42
2018-04-06T19:51:44.890Z,13.42
2018-04-06T19:54:13.621Z,13.37
2018-04-06T19:56:41.595Z,13.43
2018-04-06T19:59:09.384Z,13.40
2018-04-06T20:01:37.627Z,13.36
2018-04-06T20:04:05.804Z,13.25
2018-04-06T20:06:33.710Z,13.12
2018-04-06T20:09:01.539Z,13.30
2018-04-06T20:11:29.402Z,13.22
2018-04-06T20:13:57.473Z,13.16
2018-04-06T20:16:25.342Z,13.14
2018-04-06T20:18:53.410Z,13.19
2018-04-06T20:21:21.789Z,13.16
2018-04-06T20:23:49.656Z,13.12
2018-04-06T20:26:17.931Z,13.06
2018-04-06T20:28:46.221Z,13.03
2018-04-06T20:31:14.074Z,13.08
2018-04-06T20:33:42.046Z,12.85
2018-04-06T20:36:09.894Z,12.83
2018-04-06T20:38:37.778Z,12.96
2018-04-06T20:41:05.643Z,12.84
2018-04-06T20:43:33.509Z,12.77
2018-04-06T20:46:01.285Z,12.67
2018-04-06T20:48:29.576Z,12.65
2018-04-06T20:50:57.723Z,12.60
2018-04-06T20:53:25.915Z,12.51
2018-04-06T20:55:53.969Z,12.50
2018-04-06T20:58:21.938Z,12.46
2018-04-06T21:00:49.597Z,12.37
2018-04-06T21:03:17.874Z,12.43
2018-04-06T21:05:45.657Z,12.47
2018-04-06T21:08:13.403Z,12.35
2018-04-06T21:10:41.331Z,12.36
2018-04-06T21:13:09.021Z,12.20
2018-04-06T21:15:36.899Z,12.06
2018-04-06T21:18:04.869Z,11.97
2018-04-06T21:20:32.798Z,11.90
2018-04-06T21:23:00.704Z,11.78
2018-04-06T21:25:28.571Z,11.73
2018-04-06T21:27:56.500Z,11.61
2018-04-06T21:30:24.406Z,11.51
2018-04-06T21:32:52.195Z,11.44
2018-04-06T21:35:19.936Z,11.41
2018-04-06T21:37:47.600Z,11.38
2018-04-06T21:40:15.568Z,11.31
2018-04-06T21:42:43.534Z,11.30
2018-04-06T21:45:11.303Z,11.25
2018-04-06T21:47:39.267Z,11.19
2018-04-06T21:50:07.236Z,11.15
2018-04-06T21:52:35.044Z,11.11
2018-04-06T21:55:02.720Z,11.05
2018-04-06T21:57:30.511Z,11.04
2018-04-06T21:59:58.497Z,11.03
2018-04-06T22:02:26.144Z,11.11
2018-04-06T22:04:54.027Z,11.11
2018-04-06T22:07:21.869Z,11.09
2018-04-06T22:09:49.664Z,11.01
2018-04-06T22:12:17.245Z,10.99
2018-04-06T22:14:45.083Z,10.99
2018-04-06T22:17:12.689Z,10.95
2018-04-06T22:19:40.376Z,10.90
2018-04-06T22:22:10.545Z,10.87
2018-04-06T22:24:38.090Z,10.85
2018-04-06T22:27:05.683Z,10.85
2018-04-06T22:29:33.613Z,10.82
2018-04-06T22:32:01.134Z,10.74
2018-04-06T22:34:28.649Z,10.71
2018-04-06T22:36:56.197Z,10.70
2018-04-06T22:39:23.718Z,10.63
2018-04-06T22:41:51.385Z,10.64
2018-04-06T22:44:19.071Z,10.66
2018-04-06T22:46:46.953Z,10.61
2018-04-06T22:49:15.367Z,10.55
2018-04-06T22:51:42.960Z,10.52
2018-04-06T22:54:10.725Z,10.46
2018-04-06T22:56:38.234Z,10.38
2018-04-06T22:59:05.758Z,10.31
2018-04-06T23:01:33.302Z,10.28
2018-04-06T23:04:01.449Z,10.28
2018-04-06T23:06:29.238Z,10.25
2018-04-06T23:08:56.767Z,10.23
2018-04-06T23:11:24.298Z,10.19
2018-04-06T23:13:51.910Z,10.15
2018-04-06T23:16:20.621Z,10.12
2018-04-06T23:18:48.183Z,10.07
2018-04-06T23:21:15.706Z,10.07
2018-04-06T23:23:43.715Z,10.07
2018-04-06T23:26:12.399Z,10.05
2018-04-06T23:28:39.913Z,10.01
2018-04-06T23:31:07.823Z,10.00
2018-04-06T23:33:35.342Z,9.97
2018-04-06T23:36:02.863Z,9.95
2018-04-06T23:38:30.435Z,9.94
2018-04-06T23:40:58.977Z,9.93
2018-04-06T23:43:26.522Z,9.90
2018-04-06T23:45:54.034Z,9.84
2018-04-06T23:48:21.554Z,9.78
2018-04-06T23:50:49.116Z,9.74
2018-04-06T23:53:16.748Z,9.72
2018-04-06T23:55:44.413Z,9.71
2018-04-06T23:58:11.996Z,9.67
